Karinya Fr699 — MAUA8 — position and weather

sailwx.info

Track history (hours):
 
Tides and Currents Weather Stations Pressure Air Temp Water Temp Dewpoint Dewpoint Depression Visibility Wind Speed Wind Dir Waves Ship Positions

Karinya Fr699

Last reported at 2014-Oct-31 05:33 UTC. Time now 2014-Oct-31 15:54 UTC.
Position N 57°42' W 002°00'.

Length 16 m.

MMSI: 235018981.

Date/timePositionNaut miles runAvg speedWind from/ knotsBaromVisibWave heightAir tempDewpointWater temp
2014-Oct-31 05:33N 57°42' W 002°00'0 0.0
2014-Oct-31 04:33N 57°42' W 002°00'0 0.0
2014-Oct-31 03:33N 57°42' W 002°00'0 0.0
2014-Oct-31 02:33N 57°42' W 002°00'0 0.0
2014-Oct-31 01:34N 57°42' W 002°00'0 0.0
2014-Oct-31 00:34N 57°42' W 002°00'0 0.0
2014-Oct-30 23:33N 57°42' W 002°00'0 0.0
2014-Oct-30 22:33N 57°42' W 002°00'0 0.0
2014-Oct-30 21:33N 57°42' W 002°00'1 0.7
2014-Oct-30 20:34N 57°42' W 001°59'3 0.1
2014-Oct-28 22:34N 57°45' W 001°57'4 4.0
2014-Oct-28 21:34N 57°41' W 002°00'0 0.1
2014-Oct-28 20:33N 57°42' W 002°00'  
2014-Oct-24 15:03N 57°42' W 002°00'0 0.2
2014-Oct-24 14:33N 57°41' W 002°00'2 1.7
2014-Oct-24 13:33N 57°43' W 002°01'3 0.1
2014-Oct-22 11:28N 57°44' W 002°06'4 4.2
2014-Oct-22 10:33N 57°42' W 002°00'  
Track history (hours):
 
Tides and Currents Weather Stations Pressure Air Temp Water Temp Dewpoint Dewpoint Depression Visibility Wind Speed Wind Dir Waves Ship Positions

Karinya Fr699

Last reported at 2014-Oct-31 05:33 UTC. Time now 2014-Oct-31 15:54 UTC.
Position N 57°42' W 002°00'.

Length 16 m.

MMSI: 235018981.

Date/timePositionNaut miles runAvg speedWind from/ knotsBaromVisibWave heightAir tempDewpointWater temp
2014-Oct-31 05:33N 57°42' W 002°00'0 0.0
2014-Oct-31 04:33N 57°42' W 002°00'0 0.0
2014-Oct-31 03:33N 57°42' W 002°00'0 0.0
2014-Oct-31 02:33N 57°42' W 002°00'0 0.0
2014-Oct-31 01:34N 57°42' W 002°00'0 0.0
2014-Oct-31 00:34N 57°42' W 002°00'0 0.0
2014-Oct-30 23:33N 57°42' W 002°00'0 0.0
2014-Oct-30 22:33N 57°42' W 002°00'0 0.0
2014-Oct-30 21:33N 57°42' W 002°00'1 0.7
2014-Oct-30 20:34N 57°42' W 001°59'3 0.1
2014-Oct-28 22:34N 57°45' W 001°57'4 4.0
2014-Oct-28 21:34N 57°41' W 002°00'0 0.1
2014-Oct-28 20:33N 57°42' W 002°00'  
2014-Oct-24 15:03N 57°42' W 002°00'0 0.2
2014-Oct-24 14:33N 57°41' W 002°00'2 1.7
2014-Oct-24 13:33N 57°43' W 002°01'3 0.1
2014-Oct-22 11:28N 57°44' W 002°06'4 4.2
2014-Oct-22 10:33N 57°42' W 002°00'  

Dump ship's entire track history